Jard Avila, Puerto Rico
Current Conditions -  °F | °C
As of 3:53 AM on Tuesday 27 Jan 2015 (Local Time) from TJNR Reporting Station
Clear Clear  
Wind Chill: 75°   Ceiling: Unl
Heat Index: 75°   Visibility: 10mi
Dew Point: 71°   Wind: 6mph
Humidity: 87%   Direction: 140°SE
Pressure: 29.98"   Gusts: NA
Location:  18.2667°N, 65.6476°W
Report Text: TJNR 270753Z AUTO 14005KT 10SM CLR 24/22 A2998 RMK AO2 SLP152 T02390217 $
Loading
Personal Weather Stations






























Interactive Weather Map New forecast layout! Learn more

10-Day Weather Forecast

Advertisements
Track Severe Weather on mobile